Time;durP1;ratioP1;P1;durP2;ratioP2;P2;SDS_P1;SDS_P2;PMS_P1;PMS_P2;Temp;Humidity;BMP_temperature;BMP_pressure;BME280_temperature;BME280_humidity;BME280_pressure;Samples;Min_cycle;Max_cycle;Signal;HPM_P1;HPM_P2
2022/08/08 00:01:15;;;;;;;3.30;3.10;;;;;;;;;;5063026;28;20232;-56
2022/08/08 00:04:10;;;;;;;3.30;3.10;;;;;;;;;;5041526;28;20276;-55
2022/08/08 00:06:40;;;;;;;3.47;3.27;;;;;;;;;;5038693;28;20229;-55
2022/08/08 00:09:06;;;;;;;5.30;3.37;;;;;;;;;;5049290;28;20205;-54
2022/08/08 00:11:41;;;;;;;3.50;3.20;;;;;;;;;;5050322;28;20204;-55
2022/08/08 00:14:27;;;;;;;3.20;3.00;;;;;;;;;;5049650;28;20177;-55
2022/08/08 00:16:57;;;;;;;3.57;3.37;;;;;;;;;;5043472;28;20170;-55
2022/08/08 00:19:23;;;;;;;3.60;3.30;;;;;;;;;;5031145;28;20407;-54
2022/08/08 00:22:18;;;;;;;3.17;2.97;;;;;;;;;;5049479;28;20531;-57
2022/08/08 00:24:47;;;;;;;3.53;3.33;;;;;;;;;;5025403;28;20202;-56
2022/08/08 00:27:15;;;;;;;3.30;3.10;;;;;;;;;;5049937;28;20337;-56
2022/08/08 00:29:46;;;;;;;3.67;3.47;;;;;;;;;;5048315;28;20205;-58
2022/08/08 00:32:15;;;;;;;3.30;3.10;;;;;;;;;;5055118;28;20265;-55
2022/08/08 00:35:09;;;;;;;3.53;3.33;;;;;;;;;;5050267;28;20285;-54
2022/08/08 00:37:58;;;;;;;3.10;2.90;;;;;;;;;;5049929;28;20479;-55
2022/08/08 00:40:34;;;;;;;3.20;3.00;;;;;;;;;;4998444;28;20201;-55
2022/08/08 00:43:16;;;;;;;3.30;3.10;;;;;;;;;;5048456;28;20173;-55
2022/08/08 00:46:04;;;;;;;3.30;3.10;;;;;;;;;;5049414;28;20180;-54
2022/08/08 00:48:42;;;;;;;3.77;3.47;;;;;;;;;;5048862;28;20209;-56
2022/08/08 00:51:41;;;;;;;3.20;3.00;;;;;;;;;;5048704;28;20587;-53
2022/08/08 00:54:13;;;;;;;3.47;3.17;;;;;;;;;;5047385;28;20666;-56
2022/08/08 00:56:55;;;;;;;3.30;3.00;;;;;;;;;;5023898;28;20181;-55
2022/08/08 00:59:40;;;;;;;2.97;2.77;;;;;;;;;;5020314;28;20603;-56
2022/08/08 01:02:24;;;;;;;4.07;3.77;;;;;;;;;;5050910;28;20243;-55
2022/08/08 01:05:10;;;;;;;3.03;2.73;;;;;;;;;;5044892;28;20209;-55
2022/08/08 01:07:49;;;;;;;3.20;3.00;;;;;;;;;;5048744;28;20240;-55
2022/08/08 01:10:28;;;;;;;2.87;2.67;;;;;;;;;;5049348;28;20208;-56
2022/08/08 01:13:25;;;;;;;3.03;2.83;;;;;;;;;;5035413;28;20195;-56
2022/08/08 01:16:01;;;;;;;3.40;3.20;;;;;;;;;;5040467;28;20541;-55
2022/08/08 01:18:33;;;;;;;3.80;3.50;;;;;;;;;;5048426;28;20619;-54
2022/08/08 01:21:18;;;;;;;3.33;3.10;;;;;;;;;;5048444;28;20204;-55
2022/08/08 01:23:57;;;;;;;3.23;2.93;;;;;;;;;;5053842;28;20183;-54
2022/08/08 01:26:23;;;;;;;3.40;3.20;;;;;;;;;;5062517;28;20545;-53
2022/08/08 01:28:55;;;;;;;3.80;3.50;;;;;;;;;;5043477;28;20183;-53
2022/08/08 01:31:40;;;;;;;2.93;2.73;;;;;;;;;;5045940;28;20550;-52
2022/08/08 01:34:06;;;;;;;3.10;2.90;;;;;;;;;;5049377;28;20190;-53
2022/08/08 01:36:49;;;;;;;3.40;3.10;;;;;;;;;;5054760;28;20162;-53
2022/08/08 01:39:28;;;;;;;3.10;2.90;;;;;;;;;;5045617;28;20237;-54
2022/08/08 01:42:01;;;;;;;3.30;3.00;;;;;;;;;;5054577;28;20183;-54
2022/08/08 01:44:45;;;;;;;3.83;3.37;;;;;;;;;;5048818;28;20171;-53
2022/08/08 01:47:11;;;;;;;3.10;2.90;;;;;;;;;;5053194;28;20166;-53
2022/08/08 01:49:38;;;;;;;3.70;3.43;;;;;;;;;;5046855;28;20224;-55
2022/08/08 01:52:10;;;;;;;3.13;2.93;;;;;;;;;;5046237;28;20532;-53
2022/08/08 01:54:51;;;;;;;3.33;3.13;;;;;;;;;;5048390;28;20167;-53
2022/08/08 01:57:24;;;;;;;2.87;2.67;;;;;;;;;;5057631;28;20541;-53
2022/08/08 02:00:17;;;;;;;3.37;3.17;;;;;;;;;;5061153;28;20185;-56
2022/08/08 02:02:52;;;;;;;3.10;2.90;;;;;;;;;;5025416;28;20554;-54
2022/08/08 02:05:18;;;;;;;3.40;3.20;;;;;;;;;;5040406;28;20756;-54
2022/08/08 02:08:02;;;;;;;3.40;3.10;;;;;;;;;;5028779;28;20231;-54
2022/08/08 02:10:45;;;;;;;3.20;3.00;;;;;;;;;;5042296;28;20202;-54
2022/08/08 02:13:22;;;;;;;3.50;3.20;;;;;;;;;;5047992;28;20197;-54
2022/08/08 02:16:01;;;;;;;3.40;3.20;;;;;;;;;;5037517;28;20608;-55
2022/08/08 02:18:38;;;;;;;3.20;3.00;;;;;;;;;;5046916;28;20178;-53
2022/08/08 02:23:59;;;;;;;3.43;3.23;;;;;;;;;;5052232;28;20188;-53
2022/08/08 02:26:33;;;;;;;3.00;2.80;;;;;;;;;;5054880;28;20576;-53
2022/08/08 02:28:59;;;;;;;3.63;3.33;;;;;;;;;;5037100;28;20176;-53
2022/08/08 02:31:28;;;;;;;3.50;2.97;;;;;;;;;;5047178;28;20193;-54
2022/08/08 02:34:13;;;;;;;3.57;3.37;;;;;;;;;;5048726;28;20196;-53
2022/08/08 02:36:51;;;;;;;3.40;3.10;;;;;;;;;;5046699;28;20590;-53
2022/08/08 02:39:36;;;;;;;3.50;3.00;;;;;;;;;;5047693;28;20186;-53
2022/08/08 02:42:08;;;;;;;3.60;3.30;;;;;;;;;;5049878;28;20185;-53
2022/08/08 02:44:46;;;;;;;3.23;3.03;;;;;;;;;;5052832;28;20181;-52
2022/08/08 02:47:18;;;;;;;3.10;2.90;;;;;;;;;;5067084;28;20243;-53
2022/08/08 02:50:03;;;;;;;3.67;3.47;;;;;;;;;;5045927;28;20205;-56
2022/08/08 02:52:35;;;;;;;4.23;3.93;;;;;;;;;;5046650;28;20185;-54
2022/08/08 02:55:20;;;;;;;3.23;3.03;;;;;;;;;;5034110;28;20601;-55
2022/08/08 02:58:01;;;;;;;4.00;3.37;;;;;;;;;;5047275;28;20624;-54
2022/08/08 03:00:30;;;;;;;3.83;3.53;;;;;;;;;;5039315;28;20579;-54
2022/08/08 03:02:56;;;;;;;3.37;3.17;;;;;;;;;;5051501;28;20188;-54
2022/08/08 03:05:22;;;;;;;3.17;2.87;;;;;;;;;;5049741;28;20205;-53
2022/08/08 03:08:13;;;;;;;3.40;3.07;;;;;;;;;;5051982;28;20233;-55
2022/08/08 03:10:58;;;;;;;3.50;3.20;;;;;;;;;;5049936;28;20191;-54
2022/08/08 03:13:36;;;;;;;3.40;3.10;;;;;;;;;;5050930;28;20189;-52
2022/08/08 03:16:21;;;;;;;3.20;2.90;;;;;;;;;;5033022;28;20550;-55
2022/08/08 03:18:53;;;;;;;3.10;2.90;;;;;;;;;;5053072;28;20181;-54
2022/08/08 03:21:19;;;;;;;3.60;3.30;;;;;;;;;;5048614;28;20627;-53
2022/08/08 03:23:45;;;;;;;3.47;3.17;;;;;;;;;;5050469;28;20658;-55
2022/08/08 03:26:32;;;;;;;3.23;3.03;;;;;;;;;;5050230;28;20182;-54
2022/08/08 03:29:01;;;;;;;3.40;3.20;;;;;;;;;;5049051;28;20692;-53
2022/08/08 03:34:16;;;;;;;3.13;2.80;;;;;;;;;;5051443;28;20176;-55
2022/08/08 03:36:43;;;;;;;3.50;3.30;;;;;;;;;;5028522;28;20675;-54
2022/08/08 03:39:13;;;;;;;2.93;2.70;;;;;;;;;;5049353;28;20187;-53
2022/08/08 03:41:40;;;;;;;3.53;3.23;;;;;;;;;;5051583;28;20668;-53
2022/08/08 03:44:09;;;;;;;3.30;3.00;;;;;;;;;;5051046;28;20164;-53
2022/08/08 03:46:45;;;;;;;3.37;3.10;;;;;;;;;;5048346;28;20186;-55
2022/08/08 03:49:22;;;;;;;3.60;3.30;;;;;;;;;;5050574;28;20221;-53
2022/08/08 03:51:55;;;;;;;3.93;3.63;;;;;;;;;;5047286;28;20645;-52
2022/08/08 03:54:21;;;;;;;2.93;2.73;;;;;;;;;;5033269;28;20169;-53
2022/08/08 03:56:48;;;;;;;3.67;3.40;;;;;;;;;;5051334;28;20199;-54
2022/08/08 03:59:14;;;;;;;4.10;3.37;;;;;;;;;;5055272;28;20235;-55
2022/08/08 04:01:41;;;;;;;4.30;3.90;;;;;;;;;;5048964;28;20632;-53
2022/08/08 04:04:07;;;;;;;3.10;2.90;;;;;;;;;;5027790;28;20182;-53
2022/08/08 04:06:33;;;;;;;4.13;3.83;;;;;;;;;;5046913;28;20235;-54
2022/08/08 04:09:00;;;;;;;3.30;3.00;;;;;;;;;;5051141;28;20157;-54
2022/08/08 04:11:26;;;;;;;3.13;2.93;;;;;;;;;;5050895;28;20212;-53
2022/08/08 04:13:52;;;;;;;3.20;3.00;;;;;;;;;;5054502;28;20192;-53
2022/08/08 04:16:19;;;;;;;3.20;2.90;;;;;;;;;;5049491;28;20182;-54
2022/08/08 04:18:47;;;;;;;3.47;3.17;;;;;;;;;;5047336;28;20189;-54
2022/08/08 04:21:13;;;;;;;6.40;5.93;;;;;;;;;;5045136;28;20193;-54
2022/08/08 04:23:39;;;;;;;3.40;3.10;;;;;;;;;;5050973;28;20667;-56
2022/08/08 04:26:06;;;;;;;3.50;3.20;;;;;;;;;;5049181;28;20635;-53
2022/08/08 04:28:32;;;;;;;4.23;3.27;;;;;;;;;;5054672;28;20545;-53
2022/08/08 04:30:58;;;;;;;3.50;3.30;;;;;;;;;;5064221;28;20602;-55
2022/08/08 04:33:24;;;;;;;4.13;3.83;;;;;;;;;;5050719;28;20181;-54
2022/08/08 04:35:50;;;;;;;3.20;3.00;;;;;;;;;;5047609;28;20263;-54
2022/08/08 04:38:16;;;;;;;3.63;3.43;;;;;;;;;;5045356;28;20227;-54
2022/08/08 04:40:42;;;;;;;3.30;3.10;;;;;;;;;;5047087;28;20950;-52
2022/08/08 04:43:09;;;;;;;4.30;4.00;;;;;;;;;;5050663;28;20169;-53
2022/08/08 04:45:35;;;;;;;3.47;3.10;;;;;;;;;;5056147;28;20187;-53
2022/08/08 04:48:01;;;;;;;3.17;2.97;;;;;;;;;;5061174;28;20188;-53
2022/08/08 04:50:27;;;;;;;3.70;3.40;;;;;;;;;;5048158;28;20722;-53
2022/08/08 04:52:53;;;;;;;3.97;3.60;;;;;;;;;;5050200;28;20175;-54
2022/08/08 04:55:19;;;;;;;3.47;3.27;;;;;;;;;;5031765;28;20192;-53
2022/08/08 04:57:46;;;;;;;2.90;2.70;;;;;;;;;;5050054;28;20657;-53
2022/08/08 05:00:13;;;;;;;4.17;3.97;;;;;;;;;;5055418;28;20186;-53
2022/08/08 05:02:39;;;;;;;3.67;3.47;;;;;;;;;;5055993;28;20188;-54
2022/08/08 05:05:05;;;;;;;3.50;3.20;;;;;;;;;;5050901;28;20897;-53
2022/08/08 05:07:31;;;;;;;3.50;3.30;;;;;;;;;;5039507;28;20226;-54
2022/08/08 05:09:58;;;;;;;3.63;3.33;;;;;;;;;;5029373;28;20206;-53
2022/08/08 05:12:24;;;;;;;3.97;3.67;;;;;;;;;;5048036;28;20177;-56
2022/08/08 05:14:50;;;;;;;3.30;3.10;;;;;;;;;;5054547;28;20573;-53
2022/08/08 05:17:16;;;;;;;3.90;3.60;;;;;;;;;;5055615;28;20594;-53
2022/08/08 05:19:43;;;;;;;5.73;3.67;;;;;;;;;;5048641;28;20620;-55
2022/08/08 05:22:09;;;;;;;4.00;3.33;;;;;;;;;;5029117;28;20275;-55
2022/08/08 05:24:36;;;;;;;4.20;3.80;;;;;;;;;;5047552;28;20584;-53
2022/08/08 05:27:05;;;;;;;5.50;5.00;;;;;;;;;;5048434;28;20586;-53
2022/08/08 05:29:39;;;;;;;3.60;3.30;;;;;;;;;;5021413;28;20290;-55
2022/08/08 05:32:05;;;;;;;3.53;3.23;;;;;;;;;;5049424;28;20451;-53
2022/08/08 05:34:42;;;;;;;3.63;3.33;;;;;;;;;;5049955;28;20173;-54
2022/08/08 05:37:09;;;;;;;4.47;3.70;;;;;;;;;;5023570;28;20272;-53
2022/08/08 05:39:35;;;;;;;4.27;3.53;;;;;;;;;;5028847;28;20181;-54
2022/08/08 05:42:01;;;;;;;3.53;3.23;;;;;;;;;;5025147;28;20280;-54
2022/08/08 05:44:29;;;;;;;3.83;3.50;;;;;;;;;;5046850;28;20705;-54
2022/08/08 05:46:57;;;;;;;3.90;3.60;;;;;;;;;;5034243;28;20215;-54
2022/08/08 05:49:23;;;;;;;4.03;3.73;;;;;;;;;;5021200;28;20559;-54
2022/08/08 05:51:49;;;;;;;3.93;3.63;;;;;;;;;;5046495;28;20251;-54
2022/08/08 05:54:16;;;;;;;4.13;3.77;;;;;;;;;;5049012;28;20272;-54
2022/08/08 05:56:43;;;;;;;4.00;3.70;;;;;;;;;;5030187;28;20205;-54
2022/08/08 05:59:20;;;;;;;3.87;3.57;;;;;;;;;;5053586;28;20192;-54
2022/08/08 06:01:51;;;;;;;3.97;3.57;;;;;;;;;;5039782;28;20169;-54
2022/08/08 06:04:18;;;;;;;4.03;3.67;;;;;;;;;;5043245;28;20621;-55
2022/08/08 06:06:52;;;;;;;5.17;4.03;;;;;;;;;;5046911;28;20196;-55
2022/08/08 06:09:31;;;;;;;4.87;4.27;;;;;;;;;;5048276;28;20153;-54
2022/08/08 06:12:01;;;;;;;4.53;4.13;;;;;;;;;;5047739;28;20176;-54
2022/08/08 06:14:28;;;;;;;4.27;3.87;;;;;;;;;;5048660;28;20169;-53
2022/08/08 06:16:56;;;;;;;4.30;4.00;;;;;;;;;;5046375;28;20200;-53
2022/08/08 06:19:22;;;;;;;4.57;4.17;;;;;;;;;;5040675;28;20178;-53
2022/08/08 06:21:49;;;;;;;4.00;3.70;;;;;;;;;;5040326;28;20518;-53
2022/08/08 06:24:15;;;;;;;4.43;4.03;;;;;;;;;;5061240;28;20673;-54
2022/08/08 06:26:45;;;;;;;6.00;3.80;;;;;;;;;;5062713;28;20655;-54
2022/08/08 06:29:13;;;;;;;4.80;4.40;;;;;;;;;;5058793;28;20184;-54
2022/08/08 06:31:40;;;;;;;3.97;3.57;;;;;;;;;;5057215;28;20523;-53
2022/08/08 06:34:17;;;;;;;4.70;4.10;;;;;;;;;;5047793;28;20185;-55
2022/08/08 06:36:44;;;;;;;4.47;4.07;;;;;;;;;;5040530;28;20170;-53
2022/08/08 06:39:13;;;;;;;5.17;4.50;;;;;;;;;;5033550;28;20178;-55
2022/08/08 06:41:58;;;;;;;4.33;4.03;;;;;;;;;;5038851;28;20572;-54
2022/08/08 06:44:25;;;;;;;3.90;3.60;;;;;;;;;;5047879;28;20165;-55
2022/08/08 06:46:55;;;;;;;4.90;4.40;;;;;;;;;;5057147;28;20180;-56
2022/08/08 06:49:21;;;;;;;4.50;4.07;;;;;;;;;;5060544;28;20173;-55
2022/08/08 06:51:47;;;;;;;3.77;3.33;;;;;;;;;;5036824;28;20334;-55
2022/08/08 06:54:14;;;;;;;3.70;3.40;;;;;;;;;;5045750;28;20170;-55
2022/08/08 06:56:41;;;;;;;4.20;3.90;;;;;;;;;;5042198;28;20165;-55
2022/08/08 06:59:07;;;;;;;4.53;4.13;;;;;;;;;;5053438;28;20204;-56
2022/08/08 07:01:36;;;;;;;6.43;5.93;;;;;;;;;;5026558;28;20170;-55
2022/08/08 07:04:08;;;;;;;6.57;5.97;;;;;;;;;;5027634;28;20169;-54
2022/08/08 07:06:37;;;;;;;5.47;4.90;;;;;;;;;;5048234;28;20255;-57
2022/08/08 07:09:08;;;;;;;6.07;5.50;;;;;;;;;;5040946;28;20589;-59
2022/08/08 07:11:40;;;;;;;7.67;4.93;;;;;;;;;;5040740;28;20182;-56
2022/08/08 07:14:07;;;;;;;7.50;6.80;;;;;;;;;;5041275;28;20200;-56
2022/08/08 07:16:52;;;;;;;9.17;6.47;;;;;;;;;;5040776;28;20173;-55
2022/08/08 07:19:21;;;;;;;6.67;5.63;;;;;;;;;;5043834;28;20177;-56
2022/08/08 07:21:57;;;;;;;6.70;5.67;;;;;;;;;;5044232;28;20177;-56
2022/08/08 07:24:30;;;;;;;5.87;5.27;;;;;;;;;;5039555;28;20260;-57
2022/08/08 07:26:58;;;;;;;6.80;5.63;;;;;;;;;;5043193;28;20169;-57
2022/08/08 07:29:27;;;;;;;5.40;5.00;;;;;;;;;;5043255;28;20205;-58
2022/08/08 07:31:53;;;;;;;5.00;4.50;;;;;;;;;;5044050;28;20172;-57
2022/08/08 07:34:19;;;;;;;6.77;5.63;;;;;;;;;;5047265;28;20578;-56
2022/08/08 07:36:46;;;;;;;9.87;6.13;;;;;;;;;;5038659;28;20696;-56
2022/08/08 07:39:13;;;;;;;5.73;5.20;;;;;;;;;;5043947;28;20184;-56
2022/08/08 07:41:40;;;;;;;5.87;5.37;;;;;;;;;;5043982;28;20181;-56
2022/08/08 07:44:07;;;;;;;6.50;5.90;;;;;;;;;;5028995;28;20690;-58
2022/08/08 07:46:33;;;;;;;7.90;5.97;;;;;;;;;;5038920;28;20175;-56
2022/08/08 07:48:59;;;;;;;6.87;6.27;;;;;;;;;;5042357;28;20172;-56
2022/08/08 07:51:26;;;;;;;5.63;5.10;;;;;;;;;;5039411;28;20276;-56
2022/08/08 07:54:03;;;;;;;5.67;5.17;;;;;;;;;;5045924;28;20172;-57
2022/08/08 07:56:31;;;;;;;5.70;5.10;;;;;;;;;;5043082;28;20183;-56
2022/08/08 07:59:00;;;;;;;5.93;4.90;;;;;;;;;;5040809;28;20188;-57
2022/08/08 08:01:28;;;;;;;5.33;4.93;;;;;;;;;;5029996;28;20189;-56
2022/08/08 08:03:58;;;;;;;6.50;5.93;;;;;;;;;;5048030;28;20704;-56
2022/08/08 08:06:25;;;;;;;5.80;5.30;;;;;;;;;;5045347;28;20719;-54
2022/08/08 08:09:00;;;;;;;6.23;5.63;;;;;;;;;;5047842;28;20221;-58
2022/08/08 08:11:28;;;;;;;6.50;5.43;;;;;;;;;;5046898;28;20213;-56
2022/08/08 08:14:14;;;;;;;5.63;5.07;;;;;;;;;;5030603;28;20170;-55
2022/08/08 08:16:40;;;;;;;7.20;5.60;;;;;;;;;;5049522;28;20503;-57
2022/08/08 08:19:11;;;;;;;5.80;5.30;;;;;;;;;;5044826;28;20742;-55
2022/08/08 08:21:47;;;;;;;8.20;4.87;;;;;;;;;;5020017;28;20516;-58
2022/08/08 08:24:14;;;;;;;6.37;5.30;;;;;;;;;;5039100;28;20180;-57
2022/08/08 08:26:40;;;;;;;5.00;4.50;;;;;;;;;;5054534;28;20181;-55
2022/08/08 08:29:07;;;;;;;7.80;4.50;;;;;;;;;;5029781;28;20596;-53
2022/08/08 08:31:33;;;;;;;7.97;4.30;;;;;;;;;;5046630;28;20177;-55
2022/08/08 08:34:01;;;;;;;6.07;5.57;;;;;;;;;;5048757;28;20162;-55
2022/08/08 08:36:27;;;;;;;6.00;5.40;;;;;;;;;;5028501;28;20192;-56
2022/08/08 08:38:53;;;;;;;5.77;5.17;;;;;;;;;;5046824;28;20165;-55
2022/08/08 08:41:23;;;;;;;6.93;4.80;;;;;;;;;;5048317;28;20180;-55
2022/08/08 08:43:49;;;;;;;5.10;4.70;;;;;;;;;;5048597;28;20232;-57
2022/08/08 08:46:16;;;;;;;4.50;4.20;;;;;;;;;;5046959;28;20270;-55
2022/08/08 08:48:46;;;;;;;6.03;5.40;;;;;;;;;;5043969;28;20248;-55
2022/08/08 08:51:13;;;;;;;6.03;5.53;;;;;;;;;;5025706;28;20201;-57
2022/08/08 08:53:44;;;;;;;5.60;5.10;;;;;;;;;;5041017;28;20255;-54
2022/08/08 08:56:11;;;;;;;7.25;4.13;;;;;;;;;;5025744;28;20227;-57
2022/08/08 08:58:44;;;;;;;7.22;5.05;;;;;;;;;;5045659;28;20192;-56
2022/08/08 09:01:11;;;;;;;8.00;4.40;;;;;;;;;;5041562;28;20203;-56
2022/08/08 09:03:41;;;;;;;5.40;4.87;;;;;;;;;;5048906;28;20180;-57
2022/08/08 09:06:31;;;;;;;5.43;4.87;;;;;;;;;;5042666;28;20595;-57
2022/08/08 09:09:02;;;;;;;4.93;4.53;;;;;;;;;;5046838;28;20267;-57
2022/08/08 09:11:31;;;;;;;5.70;5.20;;;;;;;;;;5040884;28;20215;-58
2022/08/08 09:13:58;;;;;;;4.70;4.27;;;;;;;;;;5044077;28;20266;-55
2022/08/08 09:16:24;;;;;;;4.20;3.87;;;;;;;;;;5028741;28;20178;-56
2022/08/08 09:18:51;;;;;;;5.13;4.60;;;;;;;;;;5030453;28;20533;-55
2022/08/08 09:21:17;;;;;;;8.70;4.67;;;;;;;;;;5043260;28;20197;-56
2022/08/08 09:23:44;;;;;;;5.23;4.73;;;;;;;;;;5043975;28;20183;-55
2022/08/08 09:26:21;;;;;;;5.90;4.77;;;;;;;;;;5046753;28;20774;-56
2022/08/08 09:28:49;;;;;;;5.43;5.00;;;;;;;;;;5041000;28;20228;-55
2022/08/08 09:31:35;;;;;;;6.23;4.10;;;;;;;;;;5040440;28;20241;-55
2022/08/08 09:34:01;;;;;;;6.03;4.60;;;;;;;;;;5030791;28;20221;-54
2022/08/08 09:36:28;;;;;;;4.93;4.50;;;;;;;;;;5040831;28;20541;-54
2022/08/08 09:38:55;;;;;;;4.60;4.13;;;;;;;;;;5046302;28;20684;-55
2022/08/08 09:41:27;;;;;;;4.20;3.80;;;;;;;;;;5043755;28;20243;-55
2022/08/08 09:43:56;;;;;;;4.43;4.03;;;;;;;;;;5044751;28;20177;-55
2022/08/08 09:46:23;;;;;;;5.90;4.93;;;;;;;;;;5026758;28;20636;-54
2022/08/08 09:48:49;;;;;;;5.00;4.50;;;;;;;;;;5041507;28;20584;-53
2022/08/08 09:51:17;;;;;;;4.93;4.53;;;;;;;;;;5041185;28;20213;-55
2022/08/08 09:53:52;;;;;;;5.00;3.90;;;;;;;;;;5026265;28;20497;-60
2022/08/08 09:56:20;;;;;;;5.03;4.37;;;;;;;;;;5044205;28;20184;-56
2022/08/08 09:58:52;;;;;;;8.83;4.70;;;;;;;;;;5040548;28;20304;-55
2022/08/08 10:01:22;;;;;;;5.13;4.20;;;;;;;;;;5024229;28;20674;-57
2022/08/08 10:03:49;;;;;;;4.53;4.13;;;;;;;;;;5023113;28;20268;-54
2022/08/08 10:06:19;;;;;;;6.17;4.50;;;;;;;;;;5044853;28;20551;-56
2022/08/08 10:08:46;;;;;;;8.73;4.50;;;;;;;;;;5045066;28;20725;-56
2022/08/08 10:11:16;;;;;;;4.73;3.97;;;;;;;;;;5024186;28;20929;-55
2022/08/08 10:13:53;;;;;;;4.37;4.07;;;;;;;;;;5042299;28;20200;-55
2022/08/08 10:16:20;;;;;;;5.63;4.00;;;;;;;;;;5043845;28;20177;-58
2022/08/08 10:18:46;;;;;;;5.53;5.03;;;;;;;;;;5045695;28;20173;-54
2022/08/08 10:21:13;;;;;;;6.23;5.40;;;;;;;;;;5043487;28;20187;-56
2022/08/08 10:23:39;;;;;;;4.30;3.90;;;;;;;;;;5042830;28;20181;-55
2022/08/08 10:26:05;;;;;;;5.30;4.90;;;;;;;;;;5046485;28;20185;-55
2022/08/08 10:28:32;;;;;;;4.43;4.13;;;;;;;;;;5040462;28;20177;-55
2022/08/08 10:32:30;;;;;;;3.73;3.50;;;;;;;;;;5023503;28;20201;-58
2022/08/08 10:33:47;;;;;;;4.60;4.20;;;;;;;;;;5043888;28;20658;-58
2022/08/08 10:36:14;;;;;;;4.67;4.27;;;;;;;;;;5038068;28;20511;-54
2022/08/08 10:38:41;;;;;;;4.87;3.77;;;;;;;;;;5026255;28;20210;-56
2022/08/08 10:41:15;;;;;;;4.20;3.70;;;;;;;;;;5027894;28;20188;-56
2022/08/08 10:43:42;;;;;;;4.57;4.17;;;;;;;;;;5021609;28;20486;-57
2022/08/08 10:46:24;;;;;;;5.40;4.83;;;;;;;;;;5023963;28;20192;-55
2022/08/08 10:48:54;;;;;;;4.87;4.47;;;;;;;;;;5024787;28;20227;-56
2022/08/08 10:51:21;;;;;;;6.33;4.13;;;;;;;;;;5042912;28;20201;-55
2022/08/08 10:53:48;;;;;;;;;;;;;;;;;;5043186;28;20025;-55
2022/08/08 10:56:14;;;;;;;;;;;;;;;;;;5039339;28;20039;-54
2022/08/08 10:58:39;;;;;;;;;;;;;;;;;;5041035;28;20048;-54
2022/08/08 11:01:05;;;;;;;;;;;;;;;;;;5043406;28;20373;-56
2022/08/08 11:03:40;;;;;;;5.17;4.47;;;;;;;;;;5045544;28;20034;-54
2022/08/08 11:06:06;;;;;;;5.40;3.90;;;;;;;;;;5040962;28;20190;-55
2022/08/08 11:08:32;;;;;;;6.10;3.93;;;;;;;;;;5040074;28;20581;-55
2022/08/08 11:11:02;;;;;;;6.17;4.53;;;;;;;;;;5042392;28;20200;-55
2022/08/08 11:13:28;;;;;;;4.50;4.10;;;;;;;;;;5038258;28;20177;-55
2022/08/08 11:15:55;;;;;;;5.30;4.83;;;;;;;;;;5036673;28;20646;-57
2022/08/08 11:18:22;;;;;;;5.63;4.13;;;;;;;;;;5022541;28;20175;-55
2022/08/08 11:20:49;;;;;;;5.50;4.50;;;;;;;;;;5024027;28;20626;-54
2022/08/08 11:23:16;;;;;;;5.20;4.57;;;;;;;;;;5026120;28;20192;-54
2022/08/08 11:25:43;;;;;;;5.00;4.60;;;;;;;;;;5047573;28;25143;-54
2022/08/08 11:28:13;;;;;;;4.13;3.83;;;;;;;;;;5042018;28;20183;-55
2022/08/08 11:30:39;;;;;;;6.40;4.37;;;;;;;;;;5049594;28;20201;-56
2022/08/08 11:33:05;;;;;;;5.07;4.57;;;;;;;;;;5046775;28;21600;-56
2022/08/08 11:35:31;;;;;;;5.40;4.53;;;;;;;;;;5043367;28;20182;-55
2022/08/08 11:37:58;;;;;;;4.20;3.90;;;;;;;;;;5044264;28;20796;-55
2022/08/08 11:40:28;;;;;;;4.40;3.90;;;;;;;;;;5038083;28;20174;-55
2022/08/08 11:42:54;;;;;;;4.77;4.13;;;;;;;;;;5009014;28;20899;-57
2022/08/08 11:45:21;;;;;;;4.60;4.20;;;;;;;;;;5026212;28;20185;-58
2022/08/08 11:47:55;;;;;;;5.77;5.20;;;;;;;;;;5045600;28;20687;-55
2022/08/08 11:50:21;;;;;;;4.80;4.30;;;;;;;;;;5032370;28;21925;-56
2022/08/08 11:52:48;;;;;;;5.10;4.03;;;;;;;;;;5038747;28;20204;-56
2022/08/08 11:55:14;;;;;;;4.33;3.93;;;;;;;;;;5012542;28;20251;-55
2022/08/08 11:57:40;;;;;;;5.53;4.90;;;;;;;;;;5043373;28;20294;-55
2022/08/08 12:00:07;;;;;;;4.40;4.00;;;;;;;;;;5056490;28;20401;-54
2022/08/08 12:02:45;;;;;;;5.70;5.20;;;;;;;;;;5029506;28;20299;-56
2022/08/08 12:05:12;;;;;;;7.90;4.37;;;;;;;;;;5032565;28;20208;-55
2022/08/08 12:07:52;;;;;;;5.77;4.17;;;;;;;;;;5056547;28;20343;-56
2022/08/08 12:10:26;;;;;;;4.97;4.43;;;;;;;;;;5051976;28;20333;-55
2022/08/08 12:13:10;;;;;;;4.33;4.03;;;;;;;;;;5013222;28;20184;-56
2022/08/08 12:15:38;;;;;;;5.47;4.20;;;;;;;;;;5025858;28;20198;-54
2022/08/08 12:18:14;;;;;;;4.90;4.17;;;;;;;;;;5027579;28;20661;-57
2022/08/08 12:20:41;;;;;;;4.57;4.03;;;;;;;;;;5022809;28;20169;-56
2022/08/08 12:23:11;;;;;;;6.67;6.07;;;;;;;;;;5038717;28;20183;-55
2022/08/08 12:25:37;;;;;;;7.13;4.57;;;;;;;;;;5034096;28;20214;-56
2022/08/08 12:28:11;;;;;;;5.37;3.60;;;;;;;;;;5054251;28;20165;-55
2022/08/08 12:30:37;;;;;;;6.23;4.37;;;;;;;;;;5056109;28;20287;-56
2022/08/08 12:33:03;;;;;;;5.40;4.00;;;;;;;;;;5040462;28;20646;-54
2022/08/08 12:35:38;;;;;;;5.17;4.77;;;;;;;;;;5046321;28;20621;-55
2022/08/08 12:38:11;;;;;;;5.13;4.07;;;;;;;;;;5050758;28;20246;-54
2022/08/08 12:40:40;;;;;;;5.23;4.20;;;;;;;;;;5049145;28;20641;-55
2022/08/08 12:43:10;;;;;;;7.13;4.00;;;;;;;;;;5048480;28;20196;-57
2022/08/08 12:45:37;;;;;;;4.60;4.20;;;;;;;;;;5045620;28;21040;-54
2022/08/08 12:48:05;;;;;;;7.47;3.67;;;;;;;;;;5044099;28;20169;-55
2022/08/08 12:50:44;;;;;;;4.43;4.03;;;;;;;;;;5046591;28;20226;-57
2022/08/08 12:53:36;;;;;;;5.80;4.27;;;;;;;;;;5049450;28;20251;-55
2022/08/08 12:56:10;;;;;;;5.47;4.20;;;;;;;;;;5041601;28;20185;-56
2022/08/08 12:58:46;;;;;;;4.40;3.95;;;;;;;;;;5049330;28;20802;-54
2022/08/08 13:01:12;;;;;;;3.92;3.60;;;;;;;;;;5023122;28;20382;-55
2022/08/08 13:03:46;;;;;;;5.33;3.90;;;;;;;;;;5046717;28;20231;-54
2022/08/08 13:06:21;;;;;;;4.33;4.00;;;;;;;;;;5035462;28;20330;-55
2022/08/08 13:08:50;;;;;;;4.17;3.77;;;;;;;;;;5048623;28;20251;-55
2022/08/08 13:11:26;;;;;;;4.13;3.83;;;;;;;;;;5022451;28;20228;-55
2022/08/08 13:14:00;;;;;;;4.93;3.60;;;;;;;;;;5047282;28;20270;-55
2022/08/08 13:16:26;;;;;;;3.80;3.50;;;;;;;;;;5055189;28;20195;-55
2022/08/08 13:18:55;;;;;;;4.43;4.03;;;;;;;;;;5045460;28;20653;-54
2022/08/08 13:21:21;;;;;;;3.60;3.30;;;;;;;;;;5046189;28;20663;-54
2022/08/08 13:23:47;;;;;;;6.33;3.83;;;;;;;;;;5048189;28;20654;-55
2022/08/08 13:26:13;;;;;;;4.47;4.07;;;;;;;;;;5019025;28;20869;-56
2022/08/08 13:28:39;;;;;;;4.37;3.97;;;;;;;;;;5046113;28;20215;-55
2022/08/08 13:31:10;;;;;;;9.27;3.63;;;;;;;;;;5046225;28;20204;-55
2022/08/08 13:33:37;;;;;;;3.93;3.57;;;;;;;;;;5045194;28;20211;-55
2022/08/08 13:36:04;;;;;;;7.53;4.03;;;;;;;;;;5050279;28;20184;-54
2022/08/08 13:38:30;;;;;;;20.37;5.57;;;;;;;;;;5041841;28;20188;-54
2022/08/08 13:40:56;;;;;;;10.07;4.80;;;;;;;;;;5048021;28;20853;-55
2022/08/08 13:43:22;;;;;;;4.97;3.53;;;;;;;;;;5050253;28;20273;-55
2022/08/08 13:45:49;;;;;;;7.17;3.73;;;;;;;;;;5045046;28;20187;-53
2022/08/08 13:48:18;;;;;;;4.67;3.43;;;;;;;;;;5048186;28;20676;-54
2022/08/08 13:50:45;;;;;;;4.27;3.60;;;;;;;;;;5032988;28;20214;-54
2022/08/08 13:53:12;;;;;;;4.37;3.97;;;;;;;;;;5051841;28;20179;-53
2022/08/08 13:55:38;;;;;;;4.40;4.00;;;;;;;;;;5045138;28;20636;-54
2022/08/08 13:58:17;;;;;;;4.07;3.87;;;;;;;;;;5048767;28;20175;-54
2022/08/08 14:00:43;;;;;;;3.73;2.93;;;;;;;;;;5046515;28;20219;-54
2022/08/08 14:03:09;;;;;;;5.40;4.80;;;;;;;;;;5023087;28;20192;-55
2022/08/08 14:05:35;;;;;;;4.10;3.43;;;;;;;;;;5046780;28;20196;-56
2022/08/08 14:08:05;;;;;;;4.23;3.43;;;;;;;;;;5045183;28;20709;-54
2022/08/08 14:10:34;;;;;;;6.50;3.60;;;;;;;;;;5025500;28;20203;-54
2022/08/08 14:13:04;;;;;;;7.33;3.40;;;;;;;;;;5042243;28;20506;-54
2022/08/08 14:15:32;;;;;;;3.87;3.57;;;;;;;;;;5054111;28;20233;-54
2022/08/08 14:18:01;;;;;;;3.07;2.87;;;;;;;;;;5045735;28;20181;-57
2022/08/08 14:20:35;;;;;;;4.70;3.17;;;;;;;;;;5028822;28;20188;-56
2022/08/08 14:23:06;;;;;;;2.97;2.77;;;;;;;;;;5047794;28;20179;-55
2022/08/08 14:25:42;;;;;;;3.70;3.20;;;;;;;;;;5050422;28;20257;-55
2022/08/08 14:28:08;;;;;;;3.50;2.90;;;;;;;;;;5016818;28;20182;-55
2022/08/08 14:30:34;;;;;;;3.37;3.17;;;;;;;;;;5044524;28;20211;-55
2022/08/08 14:33:01;;;;;;;3.87;3.17;;;;;;;;;;5051776;28;20172;-53
2022/08/08 14:35:27;;;;;;;3.07;2.80;;;;;;;;;;5058223;28;20846;-55
2022/08/08 14:37:53;;;;;;;3.60;3.40;;;;;;;;;;5053492;28;20621;-56
2022/08/08 14:40:24;;;;;;;4.73;3.30;;;;;;;;;;5047881;28;20247;-54
2022/08/08 14:42:52;;;;;;;3.20;2.90;;;;;;;;;;5049425;28;20189;-54
2022/08/08 14:45:26;;;;;;;4.03;3.30;;;;;;;;;;5066501;28;20225;-56
2022/08/08 14:48:02;;;;;;;4.30;2.80;;;;;;;;;;5033606;28;20175;-56
2022/08/08 14:50:32;;;;;;;4.07;2.80;;;;;;;;;;5040727;28;20251;-58
2022/08/08 14:53:02;;;;;;;4.03;2.73;;;;;;;;;;5038656;28;20199;-56
2022/08/08 14:55:40;;;;;;;5.77;2.77;;;;;;;;;;5048714;28;20260;-54
2022/08/08 14:58:06;;;;;;;3.17;2.97;;;;;;;;;;5047982;28;20171;-54
2022/08/08 15:00:36;;;;;;;3.40;3.10;;;;;;;;;;5048306;28;20689;-54
2022/08/08 15:03:03;;;;;;;4.30;2.93;;;;;;;;;;5033786;28;20219;-54
2022/08/08 15:05:30;;;;;;;2.97;2.77;;;;;;;;;;5051659;28;20947;-56
2022/08/08 15:07:57;;;;;;;3.43;2.70;;;;;;;;;;5053665;28;20352;-54
2022/08/08 15:10:24;;;;;;;3.20;2.90;;;;;;;;;;5033366;28;20207;-56